DLH4LM EDDF-LGAV
Flight info
| Callsign | DLH4LM |
|---|---|
| Flight time | 2h 21m |
| Altitude | 33000 |
| Route | ANEKI2L/18 ANEKI Y163 NATOR DCT TRA DCT SUXAN DCT CHI DCT NOSTO UN7 NEMES |
| Aircraft | A321/M-SDE3FGHIRWY/LB1 |
Departure
| Time | 2026-05-07 13:11 |
|---|---|
| Airport | Frankfurt Main Airport (EDDF) |
Arrival
| Time | 2026-05-07 15:32 |
|---|---|
| Airport | Athens Eleftherios Venizelos International Airport (LGAV) |
| Time | Latitude | Longitude | Altitude | Speed | Heading |
|---|---|---|---|---|---|
| 2026-05-07 12:36 | 50.04636 | 8.56667 | 356 ft | 0 kts | 115° |
| 2026-05-07 12:56 | 50.04638 | 8.56659 | 364 ft | 4 kts | 116° |
| 2026-05-07 12:56 | 50.04646 | 8.56635 | 361 ft | 4 kts | 121° |
| 2026-05-07 12:56 | 50.04668 | 8.56590 | 360 ft | 4 kts | 137° |
| 2026-05-07 12:57 | 50.04689 | 8.56567 | 362 ft | 4 kts | 163° |
| 2026-05-07 12:57 | 50.04711 | 8.56566 | 361 ft | 4 kts | 226° |
| 2026-05-07 12:57 | 50.04713 | 8.56568 | 361 ft | 4 kts | 238° |
| 2026-05-07 12:57 | 50.04697 | 8.56534 | 362 ft | 4 kts | 232° |
| 2026-05-07 12:58 | 50.04682 | 8.56499 | 361 ft | 4 kts | 242° |
| 2026-05-07 12:58 | 50.04674 | 8.56467 | 358 ft | 2 kts | 250° |
| 2026-05-07 12:58 | 50.04665 | 8.56430 | 360 ft | 4 kts | 249° |
| 2026-05-07 12:58 | 50.04655 | 8.56391 | 364 ft | 4 kts | 249° |
| 2026-05-07 12:59 | 50.04646 | 8.56351 | 360 ft | 4 kts | 250° |
| 2026-05-07 12:59 | 50.04637 | 8.56312 | 360 ft | 4 kts | 250° |
| 2026-05-07 12:59 | 50.04635 | 8.56305 | 358 ft | 0 kts | 250° |
| 2026-05-07 13:02 | 50.04633 | 8.56298 | 361 ft | 1 kts | 250° |
| 2026-05-07 13:02 | 50.04628 | 8.56277 | 360 ft | 3 kts | 249° |
| 2026-05-07 13:02 | 50.04621 | 8.56245 | 360 ft | 3 kts | 249° |
| 2026-05-07 13:02 | 50.04611 | 8.56205 | 362 ft | 5 kts | 249° |
| 2026-05-07 13:03 | 50.04594 | 8.56134 | 361 ft | 8 kts | 249° |
| 2026-05-07 13:03 | 50.04572 | 8.56041 | 360 ft | 10 kts | 249° |
| 2026-05-07 13:03 | 50.04526 | 8.55963 | 362 ft | 10 kts | 207° |
| 2026-05-07 13:03 | 50.04461 | 8.55926 | 356 ft | 10 kts | 193° |
| 2026-05-07 13:04 | 50.04392 | 8.55914 | 356 ft | 10 kts | 175° |
| 2026-05-07 13:04 | 50.04317 | 8.55946 | 359 ft | 12 kts | 161° |
| 2026-05-07 13:04 | 50.04240 | 8.55920 | 361 ft | 13 kts | 226° |
| 2026-05-07 13:04 | 50.04201 | 8.55790 | 354 ft | 14 kts | 252° |
| 2026-05-07 13:05 | 50.04170 | 8.55643 | 353 ft | 15 kts | 250° |
| 2026-05-07 13:05 | 50.04131 | 8.55490 | 354 ft | 15 kts | 250° |
| 2026-05-07 13:05 | 50.04095 | 8.55333 | 359 ft | 15 kts | 250° |
| 2026-05-07 13:05 | 50.04059 | 8.55184 | 358 ft | 15 kts | 249° |
| 2026-05-07 13:06 | 50.04022 | 8.55034 | 361 ft | 15 kts | 249° |
| 2026-05-07 13:06 | 50.03985 | 8.54880 | 353 ft | 16 kts | 250° |
| 2026-05-07 13:06 | 50.03944 | 8.54706 | 352 ft | 18 kts | 250° |
| 2026-05-07 13:06 | 50.03901 | 8.54519 | 350 ft | 19 kts | 250° |
| 2026-05-07 13:07 | 50.03845 | 8.54330 | 351 ft | 19 kts | 225° |
| 2026-05-07 13:07 | 50.03780 | 8.54156 | 348 ft | 19 kts | 252° |
| 2026-05-07 13:07 | 50.03734 | 8.53956 | 349 ft | 20 kts | 248° |
| 2026-05-07 13:07 | 50.03689 | 8.53750 | 351 ft | 20 kts | 251° |
| 2026-05-07 13:08 | 50.03634 | 8.53544 | 339 ft | 21 kts | 245° |
| 2026-05-07 13:08 | 50.03580 | 8.53333 | 338 ft | 21 kts | 250° |
| 2026-05-07 13:08 | 50.03529 | 8.53113 | 336 ft | 22 kts | 250° |
| 2026-05-07 13:08 | 50.03477 | 8.52889 | 334 ft | 22 kts | 250° |
| 2026-05-07 13:09 | 50.03427 | 8.52692 | 332 ft | 16 kts | 247° |
| 2026-05-07 13:09 | 50.03379 | 8.52598 | 334 ft | 11 kts | 195° |
| 2026-05-07 13:09 | 50.03335 | 8.52598 | 335 ft | 0 kts | 178° |
| 2026-05-07 13:10 | 50.03245 | 8.52602 | 335 ft | 43 kts | 178° |
| 2026-05-07 13:10 | 50.02707 | 8.52603 | 334 ft | 109 kts | 182° |
| 2026-05-07 13:10 | 50.01774 | 8.52596 | 330 ft | 161 kts | 178° |
| 2026-05-07 13:10 | 50.00510 | 8.52591 | 482 ft | 191 kts | 182° |
| 2026-05-07 13:11 | 49.99215 | 8.52613 | 1326 ft | 185 kts | 179° |
| 2026-05-07 13:11 | 49.97912 | 8.52706 | 1849 ft | 192 kts | 178° |
| 2026-05-07 13:11 | 49.96508 | 8.52821 | 2005 ft | 212 kts | 178° |
| 2026-05-07 13:11 | 49.94978 | 8.52946 | 2294 ft | 225 kts | 178° |
| 2026-05-07 13:12 | 49.93387 | 8.53073 | 2801 ft | 232 kts | 178° |
| 2026-05-07 13:12 | 49.91758 | 8.53197 | 3408 ft | 235 kts | 179° |
| 2026-05-07 13:12 | 49.90131 | 8.53318 | 3986 ft | 236 kts | 179° |
| 2026-05-07 13:12 | 49.88478 | 8.53437 | 4542 ft | 238 kts | 179° |
| 2026-05-07 13:13 | 49.86816 | 8.53553 | 5059 ft | 240 kts | 179° |
| 2026-05-07 13:13 | 49.85143 | 8.53669 | 5578 ft | 242 kts | 179° |
| 2026-05-07 13:13 | 49.83452 | 8.53783 | 6078 ft | 244 kts | 179° |
| 2026-05-07 13:13 | 49.81751 | 8.53898 | 6603 ft | 248 kts | 179° |
| 2026-05-07 13:14 | 49.80024 | 8.54015 | 7437 ft | 248 kts | 179° |
| 2026-05-07 13:14 | 49.78287 | 8.54125 | 8194 ft | 251 kts | 182° |
| 2026-05-07 13:14 | 49.76516 | 8.53940 | 8724 ft | 264 kts | 187° |
| 2026-05-07 13:14 | 49.74608 | 8.53684 | 9118 ft | 283 kts | 187° |
| 2026-05-07 13:15 | 49.72619 | 8.53416 | 9815 ft | 290 kts | 187° |
| 2026-05-07 13:15 | 49.70583 | 8.53145 | 10350 ft | 302 kts | 187° |
| 2026-05-07 13:15 | 49.68411 | 8.52854 | 10497 ft | 324 kts | 186° |
| 2026-05-07 13:15 | 49.66094 | 8.52546 | 10631 ft | 345 kts | 186° |
| 2026-05-07 13:16 | 49.63632 | 8.52222 | 10751 ft | 364 kts | 186° |
| 2026-05-07 13:16 | 49.61043 | 8.51880 | 10965 ft | 379 kts | 186° |
| 2026-05-07 13:16 | 49.58388 | 8.51532 | 11457 ft | 385 kts | 186° |
| 2026-05-07 13:16 | 49.55740 | 8.51185 | 11999 ft | 389 kts | 186° |
| 2026-05-07 13:17 | 49.53030 | 8.50830 | 12555 ft | 393 kts | 186° |
| 2026-05-07 13:17 | 49.50294 | 8.50472 | 13118 ft | 396 kts | 186° |
| 2026-05-07 13:17 | 49.47535 | 8.50111 | 13674 ft | 400 kts | 186° |
| 2026-05-07 13:17 | 49.44752 | 8.49745 | 14197 ft | 403 kts | 186° |
| 2026-05-07 13:18 | 49.41950 | 8.49375 | 14722 ft | 405 kts | 186° |
| 2026-05-07 13:18 | 49.39122 | 8.49003 | 15286 ft | 407 kts | 186° |
| 2026-05-07 13:18 | 49.36292 | 8.48634 | 15804 ft | 409 kts | 186° |
| 2026-05-07 13:18 | 49.33444 | 8.48263 | 16312 ft | 412 kts | 186° |
| 2026-05-07 13:19 | 49.30581 | 8.47891 | 16801 ft | 414 kts | 186° |
| 2026-05-07 13:19 | 49.27701 | 8.47519 | 17288 ft | 417 kts | 186° |
| 2026-05-07 13:19 | 49.24801 | 8.47143 | 17785 ft | 419 kts | 186° |
| 2026-05-07 13:19 | 49.21888 | 8.46765 | 18263 ft | 422 kts | 187° |
| 2026-05-07 13:20 | 49.18997 | 8.46390 | 18698 ft | 423 kts | 187° |
| 2026-05-07 13:20 | 49.16055 | 8.46008 | 19139 ft | 425 kts | 187° |
| 2026-05-07 13:20 | 49.13101 | 8.45623 | 19569 ft | 427 kts | 187° |
| 2026-05-07 13:20 | 49.10130 | 8.45237 | 19993 ft | 429 kts | 187° |
| 2026-05-07 13:21 | 49.07147 | 8.44839 | 20409 ft | 431 kts | 189° |
| 2026-05-07 13:21 | 49.04199 | 8.44002 | 20798 ft | 431 kts | 195° |
| 2026-05-07 13:21 | 49.01266 | 8.42966 | 21164 ft | 433 kts | 195° |
| 2026-05-07 13:21 | 48.98324 | 8.41936 | 21518 ft | 435 kts | 195° |
| 2026-05-07 13:22 | 48.95367 | 8.40908 | 21855 ft | 437 kts | 195° |
| 2026-05-07 13:22 | 48.92394 | 8.39876 | 22167 ft | 439 kts | 195° |
| 2026-05-07 13:22 | 48.89413 | 8.38841 | 22485 ft | 441 kts | 195° |
| 2026-05-07 13:22 | 48.86417 | 8.37801 | 22800 ft | 443 kts | 195° |
| 2026-05-07 13:23 | 48.83409 | 8.36761 | 23104 ft | 444 kts | 195° |
| 2026-05-07 13:23 | 48.80387 | 8.35717 | 23406 ft | 446 kts | 195° |
| 2026-05-07 13:23 | 48.77353 | 8.34666 | 23679 ft | 448 kts | 195° |
| 2026-05-07 13:23 | 48.74312 | 8.33582 | 23919 ft | 450 kts | 195° |
| 2026-05-07 13:24 | 48.71261 | 8.32465 | 24150 ft | 452 kts | 195° |
| 2026-05-07 13:24 | 48.68204 | 8.31335 | 24384 ft | 453 kts | 195° |
| 2026-05-07 13:24 | 48.65137 | 8.30203 | 24631 ft | 454 kts | 195° |
| 2026-05-07 13:24 | 48.62061 | 8.29070 | 24865 ft | 455 kts | 195° |
| 2026-05-07 13:25 | 48.58977 | 8.27943 | 25090 ft | 457 kts | 195° |
| 2026-05-07 13:25 | 48.55885 | 8.26819 | 25300 ft | 458 kts | 195° |
| 2026-05-07 13:25 | 48.52819 | 8.25714 | 25511 ft | 459 kts | 194° |
| 2026-05-07 13:25 | 48.49650 | 8.25031 | 25745 ft | 461 kts | 185° |
| 2026-05-07 13:26 | 48.46441 | 8.25086 | 26041 ft | 462 kts | 176° |
| 2026-05-07 13:26 | 48.43257 | 8.25772 | 26331 ft | 463 kts | 173° |
| 2026-05-07 13:26 | 48.40078 | 8.26548 | 26622 ft | 462 kts | 173° |
| 2026-05-07 13:26 | 48.36911 | 8.27316 | 26910 ft | 461 kts | 173° |
| 2026-05-07 13:27 | 48.33749 | 8.28081 | 27180 ft | 460 kts | 172° |
| 2026-05-07 13:27 | 48.30587 | 8.28843 | 27454 ft | 459 kts | 172° |
| 2026-05-07 13:27 | 48.27437 | 8.29602 | 27731 ft | 458 kts | 173° |
| 2026-05-07 13:27 | 48.24290 | 8.30362 | 28005 ft | 457 kts | 172° |
| 2026-05-07 13:28 | 48.21148 | 8.31125 | 28299 ft | 456 kts | 173° |
| 2026-05-07 13:28 | 48.18012 | 8.31884 | 28589 ft | 456 kts | 173° |
| 2026-05-07 13:28 | 48.14887 | 8.32637 | 28874 ft | 455 kts | 173° |
| 2026-05-07 13:28 | 48.11811 | 8.33379 | 29145 ft | 454 kts | 172° |
| 2026-05-07 13:29 | 48.08694 | 8.34129 | 29441 ft | 453 kts | 172° |
| 2026-05-07 13:29 | 48.05585 | 8.34882 | 29728 ft | 452 kts | 172° |
| 2026-05-07 13:29 | 48.02479 | 8.35639 | 30015 ft | 451 kts | 172° |
| 2026-05-07 13:29 | 47.99383 | 8.36394 | 30257 ft | 451 kts | 172° |
| 2026-05-07 13:30 | 47.96293 | 8.37147 | 30474 ft | 450 kts | 173° |
| 2026-05-07 13:30 | 47.93201 | 8.37894 | 30671 ft | 450 kts | 173° |
| 2026-05-07 13:30 | 47.90105 | 8.38643 | 30844 ft | 451 kts | 173° |
| 2026-05-07 13:30 | 47.87004 | 8.39387 | 31022 ft | 451 kts | 173° |
| 2026-05-07 13:31 | 47.83901 | 8.40126 | 31215 ft | 451 kts | 173° |
| 2026-05-07 13:31 | 47.80801 | 8.40863 | 31397 ft | 451 kts | 173° |
| 2026-05-07 13:31 | 47.77699 | 8.41601 | 31583 ft | 451 kts | 173° |
| 2026-05-07 13:31 | 47.74604 | 8.42435 | 31761 ft | 453 kts | 167° |
| 2026-05-07 13:32 | 47.71607 | 8.43941 | 31912 ft | 456 kts | 158° |
| 2026-05-07 13:32 | 47.68811 | 8.46189 | 32051 ft | 460 kts | 148° |
| 2026-05-07 13:32 | 47.66299 | 8.49135 | 32195 ft | 463 kts | 137° |
| 2026-05-07 13:32 | 47.64144 | 8.52705 | 32349 ft | 465 kts | 129° |
| 2026-05-07 13:33 | 47.62151 | 8.56483 | 32482 ft | 466 kts | 129° |
| 2026-05-07 13:33 | 47.60142 | 8.60256 | 32642 ft | 466 kts | 130° |
| 2026-05-07 13:33 | 47.58148 | 8.63975 | 32800 ft | 467 kts | 130° |
| 2026-05-07 13:33 | 47.56124 | 8.67738 | 32989 ft | 466 kts | 130° |
| 2026-05-07 13:34 | 47.50010 | 8.79080 | 33032 ft | 472 kts | 130° |
| 2026-05-07 13:35 | 47.45911 | 8.86680 | 33018 ft | 473 kts | 130° |
| 2026-05-07 13:35 | 47.41802 | 8.94288 | 33034 ft | 474 kts | 130° |
| 2026-05-07 13:36 | 47.37681 | 9.01893 | 33040 ft | 474 kts | 130° |
| 2026-05-07 13:36 | 47.33553 | 9.09481 | 33041 ft | 475 kts | 130° |
| 2026-05-07 13:37 | 47.29441 | 9.17027 | 33060 ft | 475 kts | 130° |
| 2026-05-07 13:37 | 47.25302 | 9.24602 | 33064 ft | 475 kts | 130° |
| 2026-05-07 13:38 | 47.21155 | 9.32159 | 33041 ft | 475 kts | 131° |
| 2026-05-07 13:38 | 47.16997 | 9.39712 | 33039 ft | 475 kts | 131° |
| 2026-05-07 13:39 | 47.12832 | 9.47255 | 33027 ft | 476 kts | 131° |
| 2026-05-07 13:39 | 47.08662 | 9.54804 | 33044 ft | 476 kts | 131° |
| 2026-05-07 13:40 | 47.04484 | 9.62341 | 33045 ft | 476 kts | 131° |
| 2026-05-07 13:40 | 47.00294 | 9.69872 | 33044 ft | 476 kts | 131° |
| 2026-05-07 13:41 | 46.96099 | 9.77400 | 33028 ft | 477 kts | 131° |
| 2026-05-07 13:41 | 46.91923 | 9.84875 | 33037 ft | 477 kts | 131° |
| 2026-05-07 13:42 | 46.87708 | 9.92384 | 33027 ft | 478 kts | 132° |
| 2026-05-07 13:42 | 46.83482 | 9.99909 | 33022 ft | 479 kts | 132° |
| 2026-05-07 13:43 | 46.79253 | 10.07417 | 33024 ft | 479 kts | 132° |
| 2026-05-07 13:43 | 46.75013 | 10.14920 | 33016 ft | 479 kts | 132° |
| 2026-05-07 13:44 | 46.71482 | 10.21142 | 32993 ft | 480 kts | 133° |
| 2026-05-07 13:44 | 46.67223 | 10.28630 | 32988 ft | 480 kts | 133° |
| 2026-05-07 13:45 | 46.62956 | 10.36127 | 32994 ft | 481 kts | 133° |
| 2026-05-07 13:45 | 46.58681 | 10.43617 | 32988 ft | 481 kts | 133° |
| 2026-05-07 13:46 | 46.54111 | 10.50570 | 32996 ft | 476 kts | 143° |
| 2026-05-07 13:46 | 46.49094 | 10.56833 | 32986 ft | 475 kts | 143° |
| 2026-05-07 13:47 | 46.44080 | 10.63088 | 32964 ft | 475 kts | 143° |
| 2026-05-07 13:47 | 46.39066 | 10.69332 | 32990 ft | 476 kts | 143° |
| 2026-05-07 13:48 | 46.34064 | 10.75547 | 33018 ft | 476 kts | 144° |
| 2026-05-07 13:48 | 46.29024 | 10.81778 | 33042 ft | 476 kts | 144° |
| 2026-05-07 13:49 | 46.23984 | 10.87997 | 33069 ft | 477 kts | 144° |
| 2026-05-07 13:49 | 46.18940 | 10.94210 | 33070 ft | 476 kts | 144° |
| 2026-05-07 13:50 | 46.13900 | 11.00410 | 33063 ft | 476 kts | 144° |
| 2026-05-07 13:50 | 46.08864 | 11.06589 | 33047 ft | 476 kts | 144° |
| 2026-05-07 13:51 | 46.03824 | 11.12749 | 33026 ft | 475 kts | 144° |
| 2026-05-07 13:51 | 45.98777 | 11.18910 | 32955 ft | 476 kts | 145° |
| 2026-05-07 13:52 | 45.93746 | 11.25032 | 32949 ft | 478 kts | 145° |
| 2026-05-07 13:52 | 45.88659 | 11.31194 | 32961 ft | 479 kts | 145° |
| 2026-05-07 13:53 | 45.83568 | 11.37360 | 32960 ft | 479 kts | 145° |
| 2026-05-07 13:53 | 45.78465 | 11.43538 | 32956 ft | 480 kts | 146° |
| 2026-05-07 13:54 | 45.73343 | 11.49702 | 32954 ft | 481 kts | 146° |
| 2026-05-07 13:54 | 45.68217 | 11.55863 | 32958 ft | 481 kts | 146° |
| 2026-05-07 13:55 | 45.63085 | 11.62011 | 32962 ft | 482 kts | 146° |
| 2026-05-07 13:55 | 45.57975 | 11.68109 | 32977 ft | 482 kts | 146° |
| 2026-05-07 13:56 | 45.52824 | 11.74255 | 32956 ft | 483 kts | 146° |
| 2026-05-07 13:56 | 45.47675 | 11.80393 | 32973 ft | 483 kts | 147° |
| 2026-05-07 13:57 | 45.42520 | 11.86517 | 32986 ft | 482 kts | 147° |
| 2026-05-07 13:57 | 45.37358 | 11.92622 | 32989 ft | 482 kts | 147° |
| 2026-05-07 13:58 | 45.32199 | 11.98706 | 32965 ft | 482 kts | 147° |
| 2026-05-07 13:58 | 45.27036 | 12.04796 | 32940 ft | 482 kts | 147° |
| 2026-05-07 13:59 | 45.21870 | 12.10868 | 32973 ft | 482 kts | 147° |
| 2026-05-07 13:59 | 45.16741 | 12.16878 | 32988 ft | 482 kts | 148° |
| 2026-05-07 14:00 | 45.11576 | 12.22916 | 32961 ft | 481 kts | 148° |
| 2026-05-07 14:00 | 45.06458 | 12.29079 | 32977 ft | 487 kts | 142° |
| 2026-05-07 14:01 | 45.01717 | 12.35951 | 33002 ft | 488 kts | 142° |
| 2026-05-07 14:01 | 44.96971 | 12.42798 | 33003 ft | 488 kts | 142° |
| 2026-05-07 14:02 | 44.92212 | 12.49631 | 33012 ft | 488 kts | 142° |
| 2026-05-07 14:02 | 44.87454 | 12.56447 | 32987 ft | 487 kts | 142° |
| 2026-05-07 14:03 | 44.82702 | 12.63265 | 32998 ft | 487 kts | 142° |
| 2026-05-07 14:03 | 44.77985 | 12.70014 | 33017 ft | 487 kts | 142° |
| 2026-05-07 14:04 | 44.73227 | 12.76794 | 33026 ft | 486 kts | 142° |
| 2026-05-07 14:04 | 44.68468 | 12.83554 | 33025 ft | 486 kts | 142° |
| 2026-05-07 14:05 | 44.63709 | 12.90295 | 33008 ft | 486 kts | 142° |
| 2026-05-07 14:05 | 44.58953 | 12.97015 | 33000 ft | 485 kts | 142° |
| 2026-05-07 14:06 | 44.54193 | 13.03724 | 33016 ft | 484 kts | 142° |
| 2026-05-07 14:06 | 44.49469 | 13.10379 | 33022 ft | 484 kts | 142° |
| 2026-05-07 14:07 | 44.44712 | 13.17055 | 33025 ft | 484 kts | 142° |
| 2026-05-07 14:07 | 44.39957 | 13.23714 | 32997 ft | 483 kts | 142° |
| 2026-05-07 14:08 | 44.35210 | 13.30350 | 33028 ft | 482 kts | 142° |
| 2026-05-07 14:08 | 44.30464 | 13.36959 | 33028 ft | 481 kts | 142° |
| 2026-05-07 14:09 | 44.25754 | 13.43512 | 33023 ft | 481 kts | 142° |
| 2026-05-07 14:09 | 44.21014 | 13.50082 | 33026 ft | 480 kts | 142° |
| 2026-05-07 14:10 | 44.16272 | 13.56633 | 32994 ft | 480 kts | 142° |
| 2026-05-07 14:10 | 44.11532 | 13.63171 | 33012 ft | 479 kts | 142° |
| 2026-05-07 14:11 | 44.06795 | 13.69700 | 33021 ft | 479 kts | 142° |
| 2026-05-07 14:11 | 44.02059 | 13.76213 | 33023 ft | 479 kts | 142° |
| 2026-05-07 14:12 | 43.97310 | 13.82715 | 33025 ft | 479 kts | 142° |
| 2026-05-07 14:12 | 43.92562 | 13.89201 | 33022 ft | 479 kts | 142° |
| 2026-05-07 14:13 | 43.87812 | 13.95675 | 33030 ft | 479 kts | 142° |
| 2026-05-07 14:13 | 43.83066 | 14.02139 | 33031 ft | 478 kts | 142° |
| 2026-05-07 14:14 | 43.78315 | 14.08589 | 33306 ft | 477 kts | 142° |
| 2026-05-07 14:14 | 43.75944 | 14.11798 | 33467 ft | 477 kts | 142° |
| 2026-05-07 14:14 | 43.73604 | 14.14960 | 33612 ft | 477 kts | 142° |
| 2026-05-07 14:14 | 43.71229 | 14.18173 | 33739 ft | 477 kts | 142° |
| 2026-05-07 14:15 | 43.68859 | 14.21379 | 33905 ft | 476 kts | 142° |
| 2026-05-07 14:15 | 43.66491 | 14.24571 | 34025 ft | 476 kts | 142° |
| 2026-05-07 14:15 | 43.64119 | 14.27762 | 34155 ft | 476 kts | 142° |
| 2026-05-07 14:15 | 43.61747 | 14.30957 | 34276 ft | 476 kts | 142° |
| 2026-05-07 14:16 | 43.59382 | 14.34143 | 34398 ft | 476 kts | 142° |
| 2026-05-07 14:16 | 43.57014 | 14.37331 | 34521 ft | 475 kts | 142° |
| 2026-05-07 14:16 | 43.54647 | 14.40509 | 34634 ft | 475 kts | 142° |
| 2026-05-07 14:16 | 43.52278 | 14.43681 | 34761 ft | 475 kts | 142° |
| 2026-05-07 14:17 | 43.49910 | 14.46843 | 34910 ft | 474 kts | 142° |
| 2026-05-07 14:17 | 43.45164 | 14.53175 | 35015 ft | 476 kts | 142° |
| 2026-05-07 14:18 | 43.40405 | 14.59520 | 35011 ft | 476 kts | 142° |
| 2026-05-07 14:18 | 43.35678 | 14.65806 | 35014 ft | 476 kts | 143° |
| 2026-05-07 14:19 | 43.30919 | 14.72123 | 35013 ft | 476 kts | 143° |
| 2026-05-07 14:19 | 43.26147 | 14.78437 | 34982 ft | 476 kts | 143° |
| 2026-05-07 14:20 | 43.21354 | 14.84736 | 34991 ft | 477 kts | 143° |
| 2026-05-07 14:20 | 43.16557 | 14.91051 | 35009 ft | 478 kts | 143° |
| 2026-05-07 14:21 | 43.11782 | 14.97334 | 35015 ft | 481 kts | 143° |
| 2026-05-07 14:21 | 43.06921 | 15.03718 | 35014 ft | 486 kts | 143° |
| 2026-05-07 14:22 | 43.02018 | 15.10138 | 34985 ft | 490 kts | 142° |
| 2026-05-07 14:22 | 42.97064 | 15.16586 | 35013 ft | 493 kts | 143° |
| 2026-05-07 14:23 | 42.92082 | 15.23076 | 35012 ft | 496 kts | 142° |
| 2026-05-07 14:23 | 42.87130 | 15.29537 | 35005 ft | 496 kts | 142° |
| 2026-05-07 14:24 | 42.82129 | 15.36017 | 35014 ft | 496 kts | 143° |
| 2026-05-07 14:24 | 42.77105 | 15.42484 | 35006 ft | 497 kts | 143° |
| 2026-05-07 14:25 | 42.72078 | 15.48963 | 35022 ft | 498 kts | 143° |
| 2026-05-07 14:25 | 42.67050 | 15.55452 | 35031 ft | 498 kts | 143° |
| 2026-05-07 14:26 | 42.62016 | 15.61923 | 35036 ft | 498 kts | 143° |
| 2026-05-07 14:26 | 42.56973 | 15.68372 | 35025 ft | 498 kts | 143° |
| 2026-05-07 14:27 | 42.51926 | 15.74824 | 35010 ft | 499 kts | 143° |
| 2026-05-07 14:27 | 42.46874 | 15.81280 | 35020 ft | 499 kts | 143° |
| 2026-05-07 14:28 | 42.41802 | 15.87721 | 35028 ft | 500 kts | 143° |
| 2026-05-07 14:28 | 42.36758 | 15.94111 | 35033 ft | 501 kts | 143° |
| 2026-05-07 14:29 | 42.31670 | 16.00545 | 35020 ft | 501 kts | 143° |
| 2026-05-07 14:29 | 42.26576 | 16.06982 | 35002 ft | 502 kts | 144° |
| 2026-05-07 14:30 | 42.21467 | 16.13426 | 35006 ft | 503 kts | 144° |
| 2026-05-07 14:30 | 42.16339 | 16.19874 | 35020 ft | 504 kts | 144° |
| 2026-05-07 14:31 | 42.11198 | 16.26317 | 35031 ft | 505 kts | 144° |
| 2026-05-07 14:31 | 42.06053 | 16.32752 | 35035 ft | 505 kts | 144° |
| 2026-05-07 14:32 | 42.00932 | 16.39140 | 34999 ft | 506 kts | 144° |
| 2026-05-07 14:32 | 41.95770 | 16.45577 | 35013 ft | 507 kts | 144° |
| 2026-05-07 14:33 | 41.90585 | 16.52016 | 35016 ft | 508 kts | 144° |
| 2026-05-07 14:33 | 41.85386 | 16.58460 | 35029 ft | 509 kts | 144° |
| 2026-05-07 14:34 | 41.80185 | 16.64906 | 35038 ft | 509 kts | 144° |
| 2026-05-07 14:34 | 41.74971 | 16.71346 | 34992 ft | 510 kts | 144° |
| 2026-05-07 14:35 | 41.69730 | 16.77789 | 35004 ft | 512 kts | 144° |
| 2026-05-07 14:35 | 41.64467 | 16.84247 | 35017 ft | 514 kts | 144° |
| 2026-05-07 14:36 | 41.59226 | 16.90673 | 35038 ft | 515 kts | 144° |
| 2026-05-07 14:36 | 41.53947 | 16.97138 | 35046 ft | 515 kts | 144° |
| 2026-05-07 14:37 | 41.48660 | 17.03593 | 35048 ft | 515 kts | 144° |
| 2026-05-07 14:37 | 41.40721 | 17.13245 | 35052 ft | 515 kts | 144° |
| 2026-05-07 14:38 | 41.35423 | 17.19672 | 35057 ft | 515 kts | 144° |
| 2026-05-07 14:38 | 41.30120 | 17.26083 | 35026 ft | 515 kts | 145° |
| 2026-05-07 14:39 | 41.24801 | 17.32505 | 35012 ft | 517 kts | 145° |
| 2026-05-07 14:39 | 41.20355 | 17.37857 | 35017 ft | 520 kts | 145° |
| 2026-05-07 14:40 | 41.14988 | 17.44305 | 35030 ft | 521 kts | 145° |
| 2026-05-07 14:40 | 41.09602 | 17.50770 | 35053 ft | 522 kts | 145° |
| 2026-05-07 14:41 | 41.04206 | 17.57231 | 35029 ft | 523 kts | 145° |
| 2026-05-07 14:41 | 40.98784 | 17.63707 | 35021 ft | 526 kts | 146° |
| 2026-05-07 14:42 | 40.93322 | 17.70212 | 35025 ft | 529 kts | 146° |
| 2026-05-07 14:42 | 40.87871 | 17.76678 | 35037 ft | 531 kts | 145° |
| 2026-05-07 14:43 | 40.82368 | 17.83200 | 35072 ft | 531 kts | 145° |
| 2026-05-07 14:43 | 40.76865 | 17.89722 | 35037 ft | 532 kts | 146° |
| 2026-05-07 14:44 | 40.71323 | 17.96250 | 35027 ft | 536 kts | 146° |
| 2026-05-07 14:44 | 40.65742 | 18.02815 | 35030 ft | 539 kts | 146° |
| 2026-05-07 14:45 | 40.60133 | 18.09411 | 35055 ft | 542 kts | 146° |
| 2026-05-07 14:45 | 40.54501 | 18.16018 | 35062 ft | 543 kts | 146° |
| 2026-05-07 14:46 | 40.48852 | 18.22623 | 35030 ft | 545 kts | 147° |
| 2026-05-07 14:46 | 40.43169 | 18.29250 | 35039 ft | 547 kts | 147° |
| 2026-05-07 14:47 | 40.37496 | 18.35852 | 35059 ft | 549 kts | 147° |
| 2026-05-07 14:47 | 40.31771 | 18.42486 | 35075 ft | 550 kts | 147° |
| 2026-05-07 14:48 | 40.26033 | 18.49131 | 35043 ft | 551 kts | 147° |
| 2026-05-07 14:48 | 40.20281 | 18.55777 | 35054 ft | 552 kts | 147° |
| 2026-05-07 14:49 | 40.14509 | 18.62432 | 35067 ft | 553 kts | 147° |
| 2026-05-07 14:49 | 40.08726 | 18.69084 | 35077 ft | 554 kts | 147° |
| 2026-05-07 14:50 | 40.02976 | 18.75686 | 35084 ft | 554 kts | 147° |
| 2026-05-07 14:50 | 39.97181 | 18.82316 | 35063 ft | 554 kts | 147° |
| 2026-05-07 14:51 | 39.91377 | 18.88951 | 35073 ft | 555 kts | 147° |
| 2026-05-07 14:51 | 39.85568 | 18.95571 | 35081 ft | 555 kts | 147° |
| 2026-05-07 14:52 | 39.80109 | 19.02785 | 35087 ft | 569 kts | 132° |
| 2026-05-07 14:52 | 39.75451 | 19.11150 | 35089 ft | 571 kts | 131° |
| 2026-05-07 14:53 | 39.70785 | 19.19503 | 35075 ft | 571 kts | 131° |
| 2026-05-07 14:53 | 39.66127 | 19.27780 | 35107 ft | 572 kts | 131° |
| 2026-05-07 14:54 | 39.61431 | 19.36116 | 35092 ft | 572 kts | 131° |
| 2026-05-07 14:54 | 39.56735 | 19.44442 | 35088 ft | 572 kts | 131° |
| 2026-05-07 14:55 | 39.52027 | 19.52775 | 35090 ft | 573 kts | 131° |
| 2026-05-07 14:55 | 39.47310 | 19.61094 | 35108 ft | 573 kts | 131° |
| 2026-05-07 14:56 | 39.42573 | 19.69401 | 35073 ft | 574 kts | 131° |
| 2026-05-07 14:56 | 39.37840 | 19.77701 | 35095 ft | 574 kts | 131° |
| 2026-05-07 14:57 | 39.33110 | 19.86005 | 35110 ft | 574 kts | 131° |
| 2026-05-07 14:57 | 39.28363 | 19.94299 | 35108 ft | 574 kts | 131° |
| 2026-05-07 14:58 | 39.23607 | 20.02573 | 35102 ft | 574 kts | 131° |
| 2026-05-07 14:58 | 39.18841 | 20.10826 | 35113 ft | 574 kts | 131° |
| 2026-05-07 14:59 | 39.14074 | 20.19078 | 35109 ft | 574 kts | 131° |
| 2026-05-07 14:59 | 39.09311 | 20.27337 | 35093 ft | 575 kts | 130° |
| 2026-05-07 15:00 | 39.04571 | 20.35627 | 35110 ft | 575 kts | 130° |
| 2026-05-07 15:00 | 38.99830 | 20.43911 | 35113 ft | 575 kts | 130° |
| 2026-05-07 15:01 | 38.95077 | 20.52169 | 35111 ft | 575 kts | 130° |
| 2026-05-07 15:01 | 38.90317 | 20.60422 | 35110 ft | 575 kts | 130° |
| 2026-05-07 15:02 | 38.85553 | 20.68662 | 35135 ft | 575 kts | 130° |
| 2026-05-07 15:02 | 38.80766 | 20.76795 | 35135 ft | 575 kts | 131° |
| 2026-05-07 15:03 | 38.75919 | 20.84952 | 35124 ft | 575 kts | 131° |
| 2026-05-07 15:03 | 38.71068 | 20.93112 | 35128 ft | 576 kts | 130° |
| 2026-05-07 15:04 | 38.66220 | 21.01272 | 35120 ft | 575 kts | 131° |
| 2026-05-07 15:04 | 38.61368 | 21.09410 | 35117 ft | 575 kts | 131° |
| 2026-05-07 15:05 | 38.56509 | 21.17536 | 35119 ft | 576 kts | 130° |
| 2026-05-07 15:05 | 38.51638 | 21.25671 | 35121 ft | 576 kts | 130° |
| 2026-05-07 15:06 | 38.46764 | 21.33803 | 35112 ft | 576 kts | 130° |
| 2026-05-07 15:06 | 38.41917 | 21.41861 | 35131 ft | 576 kts | 130° |
| 2026-05-07 15:07 | 38.37032 | 21.49954 | 35133 ft | 575 kts | 130° |
| 2026-05-07 15:07 | 38.32148 | 21.58032 | 35135 ft | 575 kts | 130° |
| 2026-05-07 15:08 | 38.27265 | 21.66092 | 35138 ft | 575 kts | 130° |
| 2026-05-07 15:08 | 38.22376 | 21.74134 | 35136 ft | 575 kts | 131° |
| 2026-05-07 15:09 | 38.17511 | 21.82120 | 35106 ft | 574 kts | 130° |
| 2026-05-07 15:09 | 38.12634 | 21.90110 | 35109 ft | 570 kts | 130° |
| 2026-05-07 15:10 | 38.07769 | 21.98041 | 35113 ft | 569 kts | 130° |
| 2026-05-07 15:10 | 38.02914 | 22.05955 | 35111 ft | 569 kts | 130° |
| 2026-05-07 15:11 | 37.98046 | 22.13875 | 35114 ft | 569 kts | 130° |
| 2026-05-07 15:11 | 37.93161 | 22.21789 | 35120 ft | 570 kts | 131° |
| 2026-05-07 15:12 | 37.90723 | 22.25735 | 35013 ft | 566 kts | 130° |
| 2026-05-07 15:12 | 37.88342 | 22.29590 | 34376 ft | 562 kts | 130° |
| 2026-05-07 15:12 | 37.85927 | 22.33493 | 33524 ft | 563 kts | 131° |
| 2026-05-07 15:12 | 37.83511 | 22.37390 | 32790 ft | 560 kts | 131° |
| 2026-05-07 15:13 | 37.81117 | 22.41249 | 32058 ft | 557 kts | 130° |
| 2026-05-07 15:13 | 37.78727 | 22.45099 | 31278 ft | 555 kts | 131° |
| 2026-05-07 15:13 | 37.76351 | 22.48916 | 30711 ft | 549 kts | 130° |
| 2026-05-07 15:13 | 37.73998 | 22.52691 | 30128 ft | 542 kts | 130° |
| 2026-05-07 15:14 | 37.71724 | 22.56465 | 29256 ft | 540 kts | 126° |
| 2026-05-07 15:14 | 37.69800 | 22.60526 | 28320 ft | 539 kts | 118° |
| 2026-05-07 15:14 | 37.68231 | 22.64821 | 27339 ft | 538 kts | 115° |
| 2026-05-07 15:14 | 37.66764 | 22.69152 | 26526 ft | 533 kts | 109° |
| 2026-05-07 15:15 | 37.65969 | 22.73659 | 25911 ft | 522 kts | 94° |
| 2026-05-07 15:15 | 37.65959 | 22.78202 | 25074 ft | 516 kts | 86° |
| 2026-05-07 15:15 | 37.66141 | 22.82705 | 24348 ft | 510 kts | 85° |
| 2026-05-07 15:15 | 37.66335 | 22.87141 | 23748 ft | 502 kts | 85° |
| 2026-05-07 15:16 | 37.66531 | 22.91461 | 23010 ft | 496 kts | 85° |
| 2026-05-07 15:16 | 37.66736 | 22.95787 | 22251 ft | 490 kts | 85° |
| 2026-05-07 15:16 | 37.66945 | 23.00058 | 21516 ft | 485 kts | 85° |
| 2026-05-07 15:16 | 37.67159 | 23.04284 | 20772 ft | 480 kts | 85° |
| 2026-05-07 15:17 | 37.67376 | 23.08472 | 20035 ft | 476 kts | 85° |
| 2026-05-07 15:17 | 37.67598 | 23.12620 | 19306 ft | 472 kts | 85° |
| 2026-05-07 15:17 | 37.67818 | 23.16730 | 18594 ft | 467 kts | 85° |
| 2026-05-07 15:17 | 37.68043 | 23.20814 | 17791 ft | 464 kts | 85° |
| 2026-05-07 15:18 | 37.68598 | 23.24782 | 17058 ft | 455 kts | 70° |
| 2026-05-07 15:18 | 37.69745 | 23.28472 | 16334 ft | 449 kts | 65° |
| 2026-05-07 15:18 | 37.70949 | 23.32082 | 15642 ft | 444 kts | 65° |
| 2026-05-07 15:18 | 37.72149 | 23.35649 | 14975 ft | 439 kts | 65° |
| 2026-05-07 15:19 | 37.73342 | 23.39173 | 14331 ft | 434 kts | 65° |
| 2026-05-07 15:19 | 37.74526 | 23.42651 | 13677 ft | 429 kts | 65° |
| 2026-05-07 15:19 | 37.75699 | 23.46087 | 13017 ft | 423 kts | 65° |
| 2026-05-07 15:19 | 37.76858 | 23.49472 | 12376 ft | 417 kts | 65° |
| 2026-05-07 15:20 | 37.78011 | 23.52817 | 11740 ft | 411 kts | 65° |
| 2026-05-07 15:20 | 37.79152 | 23.56106 | 11103 ft | 405 kts | 65° |
| 2026-05-07 15:20 | 37.80281 | 23.59341 | 10461 ft | 400 kts | 65° |
| 2026-05-07 15:20 | 37.81373 | 23.62458 | 10249 ft | 383 kts | 65° |
| 2026-05-07 15:21 | 37.82424 | 23.65464 | 10126 ft | 365 kts | 65° |
| 2026-05-07 15:21 | 37.83426 | 23.68330 | 10009 ft | 348 kts | 65° |
| 2026-05-07 15:21 | 37.84381 | 23.71066 | 9878 ft | 332 kts | 65° |
| 2026-05-07 15:21 | 37.85292 | 23.73679 | 9748 ft | 318 kts | 65° |
| 2026-05-07 15:22 | 37.86164 | 23.76187 | 9616 ft | 306 kts | 65° |
| 2026-05-07 15:22 | 37.87003 | 23.78626 | 9361 ft | 299 kts | 65° |
| 2026-05-07 15:22 | 37.87827 | 23.81029 | 8976 ft | 296 kts | 66° |
| 2026-05-07 15:22 | 37.88645 | 23.83408 | 8605 ft | 294 kts | 65° |
| 2026-05-07 15:23 | 37.89464 | 23.85769 | 8260 ft | 292 kts | 65° |
| 2026-05-07 15:23 | 37.90279 | 23.88126 | 7879 ft | 291 kts | 65° |
| 2026-05-07 15:23 | 37.91091 | 23.90470 | 7513 ft | 289 kts | 66° |
| 2026-05-07 15:23 | 37.91899 | 23.92781 | 7121 ft | 285 kts | 66° |
| 2026-05-07 15:24 | 37.92700 | 23.95072 | 6594 ft | 284 kts | 65° |
| 2026-05-07 15:24 | 37.93500 | 23.97339 | 6072 ft | 280 kts | 65° |
| 2026-05-07 15:24 | 37.94301 | 23.99579 | 5552 ft | 278 kts | 65° |
| 2026-05-07 15:24 | 37.95103 | 24.01799 | 5063 ft | 275 kts | 65° |
| 2026-05-07 15:25 | 37.95888 | 24.03962 | 4544 ft | 273 kts | 64° |
| 2026-05-07 15:25 | 37.96848 | 24.06006 | 4177 ft | 263 kts | 56° |
| 2026-05-07 15:25 | 37.97855 | 24.07872 | 3700 ft | 254 kts | 56° |
| 2026-05-07 15:25 | 37.98869 | 24.09708 | 3013 ft | 254 kts | 56° |
| 2026-05-07 15:26 | 37.99882 | 24.11521 | 2611 ft | 250 kts | 56° |
| 2026-05-07 15:26 | 38.00903 | 24.13329 | 2508 ft | 252 kts | 56° |
| 2026-05-07 15:26 | 38.02020 | 24.15044 | 2520 ft | 254 kts | 38° |
| 2026-05-07 15:26 | 38.03598 | 24.15981 | 2524 ft | 252 kts | 7° |
| 2026-05-07 15:27 | 38.05255 | 24.15792 | 2525 ft | 229 kts | 335° |
| 2026-05-07 15:27 | 38.06476 | 24.14695 | 2524 ft | 205 kts | 309° |
| 2026-05-07 15:27 | 38.07211 | 24.13265 | 2525 ft | 186 kts | 289° |
| 2026-05-07 15:27 | 38.07520 | 24.11717 | 2525 ft | 177 kts | 270° |
| 2026-05-07 15:28 | 38.07440 | 24.10183 | 2529 ft | 172 kts | 254° |
| 2026-05-07 15:28 | 38.07011 | 24.08786 | 2517 ft | 169 kts | 236° |
| 2026-05-07 15:28 | 38.06282 | 24.07634 | 2520 ft | 168 kts | 221° |
| 2026-05-07 15:28 | 38.05358 | 24.06726 | 2529 ft | 169 kts | 216° |
| 2026-05-07 15:29 | 38.04409 | 24.05819 | 2501 ft | 172 kts | 217° |
| 2026-05-07 15:29 | 38.03460 | 24.04914 | 2345 ft | 168 kts | 216° |
| 2026-05-07 15:29 | 38.02577 | 24.04070 | 2152 ft | 153 kts | 216° |
| 2026-05-07 15:29 | 38.02026 | 24.03543 | 2014 ft | 146 kts | 216° |
| 2026-05-07 15:30 | 38.01236 | 24.02784 | 1819 ft | 139 kts | 216° |
| 2026-05-07 15:30 | 38.00440 | 24.02020 | 1698 ft | 146 kts | 213° |
| 2026-05-07 15:30 | 37.99604 | 24.01251 | 1541 ft | 150 kts | 214° |
| 2026-05-07 15:30 | 37.98758 | 24.00467 | 1315 ft | 151 kts | 217° |
| 2026-05-07 15:31 | 37.97927 | 23.99648 | 1107 ft | 149 kts | 216° |
| 2026-05-07 15:31 | 37.97118 | 23.98857 | 895 ft | 146 kts | 217° |
| 2026-05-07 15:31 | 37.96298 | 23.98086 | 661 ft | 146 kts | 216° |
| 2026-05-07 15:31 | 37.95498 | 23.97334 | 421 ft | 141 kts | 219° |
| 2026-05-07 15:32 | 37.94741 | 23.96592 | 274 ft | 134 kts | 216° |
| 2026-05-07 15:32 | 37.94121 | 23.95999 | 275 ft | 63 kts | 217° |
| 2026-05-07 15:32 | 37.93985 | 23.95873 | 279 ft | 16 kts | 234° |
| 2026-05-07 15:32 | 37.93999 | 23.95777 | 277 ft | 0 kts | 304° |
| 2026-05-07 15:33 | 37.94000 | 23.95773 | 277 ft | 0 kts | 304° |
| 2026-05-07 15:33 | 37.94001 | 23.95771 | 277 ft | 1 kts | 304° |
| 2026-05-07 15:34 | 37.94021 | 23.95735 | 277 ft | 7 kts | 304° |
| 2026-05-07 15:34 | 37.94037 | 23.95674 | 277 ft | 7 kts | 256° |
| 2026-05-07 15:34 | 37.93995 | 23.95616 | 277 ft | 12 kts | 221° |
| 2026-05-07 15:34 | 37.93932 | 23.95549 | 278 ft | 12 kts | 219° |
| 2026-05-07 15:35 | 37.93865 | 23.95479 | 279 ft | 13 kts | 227° |
| 2026-05-07 15:35 | 37.93859 | 23.95374 | 279 ft | 12 kts | 265° |
| 2026-05-07 15:35 | 37.93813 | 23.95291 | 283 ft | 12 kts | 218° |
| 2026-05-07 15:35 | 37.93743 | 23.95231 | 281 ft | 12 kts | 213° |
| 2026-05-07 15:36 | 37.93706 | 23.95142 | 282 ft | 12 kts | 273° |
| 2026-05-07 15:36 | 37.93719 | 23.95038 | 284 ft | 10 kts | 285° |
| 2026-05-07 15:36 | 37.93740 | 23.94994 | 284 ft | 3 kts | 313° |
| 2026-05-07 15:36 | 37.93746 | 23.94985 | 282 ft | 0 kts | 309° |